createdAt,value
2019-05-16T00:02:25.409Z,11.45
2019-05-16T00:04:53.734Z,11.44
2019-05-16T00:07:22.039Z,11.45
2019-05-16T00:09:50.347Z,11.44
2019-05-16T00:12:18.653Z,11.43
2019-05-16T00:14:48.977Z,11.36
2019-05-16T00:17:18.853Z,11.37
2019-05-16T00:19:48.426Z,11.39
2019-05-16T00:22:18.229Z,11.40
2019-05-16T00:24:48.617Z,11.38
2019-05-16T00:27:18.464Z,11.29
2019-05-16T00:29:48.756Z,11.28
2019-05-16T00:32:18.947Z,11.25
2019-05-16T00:34:47.772Z,11.17
2019-05-16T00:37:18.186Z,11.10
2019-05-16T00:39:48.099Z,11.08
2019-05-16T00:42:18.000Z,11.03
2019-05-16T00:44:47.887Z,10.99
2019-05-16T00:47:17.865Z,10.93
2019-05-16T00:49:48.050Z,10.92
2019-05-16T00:52:18.390Z,10.93
2019-05-16T00:54:48.509Z,10.93
2019-05-16T00:57:18.850Z,10.93
2019-05-16T00:59:48.565Z,10.92
2019-05-16T01:02:18.160Z,10.98
2019-05-16T01:04:48.578Z,11.03
2019-05-16T01:07:18.662Z,11.02
2019-05-16T01:09:48.650Z,11.05
2019-05-16T01:12:17.799Z,11.03
2019-05-16T01:14:47.816Z,10.94
2019-05-16T01:17:18.171Z,10.91
2019-05-16T01:19:48.326Z,10.93
2019-05-16T01:22:18.535Z,10.93
2019-05-16T01:24:49.085Z,10.91
2019-05-16T01:27:18.461Z,10.88
2019-05-16T01:29:47.738Z,10.85
2019-05-16T01:32:16.101Z,10.85
2019-05-16T01:34:44.424Z,10.82
2019-05-16T01:37:12.720Z,10.75
2019-05-16T01:39:41.027Z,10.72
2019-05-16T01:42:09.325Z,10.71
2019-05-16T01:44:38.225Z,10.76
2019-05-16T01:47:08.856Z,10.78
2019-05-16T01:49:38.087Z,10.77
2019-05-16T01:52:08.498Z,10.79
2019-05-16T01:54:38.710Z,10.81
2019-05-16T01:57:08.130Z,10.88
2019-05-16T01:59:38.006Z,10.92
2019-05-16T02:02:08.432Z,10.95
2019-05-16T02:04:37.958Z,10.95
2019-05-16T02:07:08.567Z,10.95
2019-05-16T02:09:38.421Z,10.97
2019-05-16T02:12:08.195Z,11.00
2019-05-16T02:14:38.722Z,11.00
2019-05-16T02:17:10.903Z,11.01
2019-05-16T02:19:38.490Z,11.02
2019-05-16T02:22:08.914Z,11.02
2019-05-16T02:24:38.783Z,11.01
2019-05-16T02:27:09.554Z,10.94
2019-05-16T02:29:37.409Z,10.90
2019-05-16T02:32:06.010Z,10.90
2019-05-16T02:34:34.331Z,10.92
2019-05-16T02:37:19.005Z,10.90
2019-05-16T02:39:32.680Z,10.88
2019-05-16T02:42:01.255Z,10.88
2019-05-16T02:44:31.872Z,10.85
2019-05-16T02:47:01.520Z,10.80
2019-05-16T02:49:33.872Z,10.79
2019-05-16T02:52:01.416Z,10.78
2019-05-16T02:54:31.649Z,10.78
2019-05-16T02:57:01.427Z,10.76
2019-05-16T02:59:30.781Z,10.71
2019-05-16T03:02:00.897Z,10.66
2019-05-16T03:04:30.638Z,10.64
2019-05-16T03:07:00.639Z,10.64
2019-05-16T03:09:30.601Z,10.60
2019-05-16T03:12:01.334Z,10.50
2019-05-16T03:14:31.682Z,10.46
2019-05-16T03:17:03.096Z,10.45
2019-05-16T03:19:33.901Z,10.40
2019-05-16T03:22:02.485Z,10.36
2019-05-16T03:24:31.154Z,10.36
2019-05-16T03:27:01.634Z,10.36
2019-05-16T03:29:30.912Z,10.37
2019-05-16T03:32:03.123Z,10.33
2019-05-16T03:34:34.457Z,10.28
2019-05-16T03:37:04.398Z,10.27
2019-05-16T03:39:31.348Z,10.24
2019-05-16T03:42:01.058Z,10.21
2019-05-16T03:44:31.681Z,10.22
2019-05-16T03:47:01.011Z,10.23
2019-05-16T03:49:31.211Z,10.20
2019-05-16T03:52:01.538Z,10.20
2019-05-16T03:54:31.499Z,10.21
2019-05-16T03:57:00.547Z,10.23
2019-05-16T03:59:31.456Z,10.20
2019-05-16T04:02:01.480Z,10.17
2019-05-16T04:04:30.906Z,10.14
2019-05-16T04:07:01.440Z,10.12
2019-05-16T04:09:31.561Z,10.08
2019-05-16T04:12:01.748Z,10.10
2019-05-16T04:14:30.941Z,10.12
2019-05-16T04:17:01.581Z,10.12
2019-05-16T04:19:31.393Z,10.14
2019-05-16T04:22:01.322Z,10.16
2019-05-16T04:24:31.677Z,10.13
2019-05-16T04:27:01.010Z,10.11
2019-05-16T04:29:31.623Z,10.11
2019-05-16T04:32:01.373Z,10.07
2019-05-16T04:34:31.131Z,10.14
2019-05-16T04:37:01.117Z,10.19
2019-05-16T04:39:31.911Z,10.17
2019-05-16T04:42:01.599Z,10.13
2019-05-16T04:44:31.049Z,10.08
2019-05-16T04:47:01.530Z,10.01
2019-05-16T04:49:31.941Z,9.96
2019-05-16T04:52:00.579Z,9.91
2019-05-16T04:54:30.873Z,9.85
2019-05-16T04:57:01.464Z,9.85
2019-05-16T04:59:31.227Z,9.78
2019-05-16T05:02:01.925Z,9.77
2019-05-16T05:04:30.678Z,9.80
2019-05-16T05:07:00.507Z,9.85
2019-05-16T05:09:31.717Z,9.88
2019-05-16T05:12:04.131Z,9.90
2019-05-16T05:14:30.820Z,9.87
2019-05-16T05:17:01.482Z,9.87
2019-05-16T05:19:30.667Z,9.89
2019-05-16T05:22:01.278Z,9.91
2019-05-16T05:24:30.254Z,10.02
2019-05-16T05:26:59.814Z,10.08
2019-05-16T05:29:30.564Z,10.07
2019-05-16T05:32:03.987Z,10.11
2019-05-16T05:34:30.462Z,10.19
2019-05-16T05:37:00.311Z,10.23
2019-05-16T05:39:30.296Z,10.29
2019-05-16T05:42:00.056Z,10.37
2019-05-16T05:44:30.565Z,10.44
2019-05-16T05:47:00.531Z,10.47
2019-05-16T05:49:30.175Z,10.49
2019-05-16T05:52:00.835Z,10.47
2019-05-16T05:54:30.846Z,10.45
2019-05-16T05:57:00.670Z,10.35
2019-05-16T05:59:30.619Z,10.31
2019-05-16T06:02:00.791Z,10.28
2019-05-16T06:04:30.536Z,10.35
2019-05-16T06:07:01.210Z,10.42
2019-05-16T06:09:32.891Z,10.50
2019-05-16T06:12:00.780Z,10.58
2019-05-16T06:14:30.664Z,10.75
2019-05-16T06:17:00.383Z,11.07
2019-05-16T06:19:29.801Z,11.28
2019-05-16T06:22:02.560Z,11.60
2019-05-16T06:24:30.840Z,11.81
2019-05-16T06:27:00.912Z,12.00
2019-05-16T06:29:30.958Z,12.12
2019-05-16T06:32:00.224Z,12.02
2019-05-16T06:34:30.140Z,12.13
2019-05-16T06:37:00.520Z,12.28
2019-05-16T06:39:39.203Z,12.35
2019-05-16T06:42:00.539Z,12.39
2019-05-16T06:44:30.893Z,12.45
2019-05-16T06:47:12.666Z,12.39
2019-05-16T06:49:30.384Z,12.45
2019-05-16T06:51:59.694Z,12.54
2019-05-16T06:54:29.858Z,12.58
2019-05-16T06:57:00.164Z,12.69
2019-05-16T06:59:29.778Z,12.87
2019-05-16T07:02:00.394Z,12.85
2019-05-16T07:04:30.465Z,12.65
2019-05-16T07:07:02.876Z,12.36
2019-05-16T07:09:30.129Z,12.36
2019-05-16T07:11:59.892Z,12.40
2019-05-16T07:14:31.145Z,12.59
2019-05-16T07:17:00.257Z,12.60
2019-05-16T07:19:30.174Z,12.28
2019-05-16T07:21:59.841Z,12.20
2019-05-16T07:24:30.549Z,12.21
2019-05-16T07:27:00.305Z,12.24
2019-05-16T07:29:30.899Z,12.08
2019-05-16T07:32:00.471Z,11.92
2019-05-16T07:34:31.221Z,11.97
2019-05-16T07:37:00.449Z,12.00
2019-05-16T07:39:30.696Z,11.79
2019-05-16T07:41:59.975Z,11.69
2019-05-16T07:44:30.938Z,11.68
2019-05-16T07:47:00.978Z,11.75
2019-05-16T07:49:30.457Z,11.74
2019-05-16T07:52:00.629Z,11.80
2019-05-16T07:54:34.022Z,11.70
2019-05-16T07:57:12.258Z,11.71
2019-05-16T07:59:30.066Z,11.62
2019-05-16T08:02:00.600Z,11.60
2019-05-16T08:04:30.358Z,11.65
2019-05-16T08:07:00.705Z,11.48
2019-05-16T08:09:30.618Z,11.42
2019-05-16T08:11:58.797Z,11.44
2019-05-16T08:14:27.134Z,11.51
2019-05-16T08:16:55.442Z,11.54
2019-05-16T08:19:25.373Z,11.48
2019-05-16T08:21:53.795Z,11.39
2019-05-16T08:24:22.115Z,11.42
2019-05-16T08:29:22.023Z,11.80
2019-05-16T08:31:52.712Z,12.03
2019-05-16T08:34:20.963Z,12.14
2019-05-16T08:36:51.869Z,12.13
2019-05-16T08:39:21.429Z,12.18
2019-05-16T08:41:51.875Z,12.19
2019-05-16T08:44:21.498Z,12.32
2019-05-16T08:46:57.008Z,12.38
2019-05-16T08:49:22.101Z,12.54
2019-05-16T08:51:52.879Z,12.46
2019-05-16T08:54:21.362Z,12.47
2019-05-16T08:56:51.082Z,12.53
2019-05-16T08:59:21.545Z,12.69
2019-05-16T09:04:24.457Z,13.17
2019-05-16T09:06:52.509Z,13.10
2019-05-16T09:09:38.135Z,13.33
2019-05-16T09:10:31.976Z,12.97
2019-05-16T09:10:40.383Z,11.51
2019-05-16T09:11:49.900Z,13.51
2019-05-16T09:14:18.206Z,13.48
2019-05-16T09:16:47.795Z,13.31
2019-05-16T09:19:17.005Z,13.56
2019-05-16T09:21:47.489Z,13.66
2019-05-16T09:24:17.860Z,13.57
2019-05-16T09:26:47.385Z,13.46
2019-05-16T09:29:16.804Z,13.53
2019-05-16T09:32:07.279Z,13.67
2019-05-16T09:34:17.508Z,13.87
2019-05-16T09:36:48.065Z,13.99
2019-05-16T09:39:17.085Z,14.29
2019-05-16T09:41:50.980Z,14.41
2019-05-16T09:44:18.316Z,14.73
2019-05-16T09:46:47.130Z,14.59
2019-05-16T09:49:22.755Z,14.44
2019-05-16T09:51:46.651Z,14.38
2019-05-16T09:54:16.750Z,14.28
2019-05-16T09:56:46.447Z,14.14
2019-05-16T09:59:17.195Z,14.03
2019-05-16T10:01:47.803Z,14.18
2019-05-16T10:04:17.465Z,14.29
2019-05-16T10:06:45.343Z,14.01
2019-05-16T10:09:13.653Z,13.86
2019-05-16T10:11:42.898Z,13.85
2019-05-16T10:14:11.839Z,13.78
2019-05-16T10:16:40.153Z,13.54
2019-05-16T10:19:08.453Z,13.37
2019-05-16T10:21:37.280Z,13.17
2019-05-16T10:24:07.309Z,13.17
2019-05-16T10:26:37.206Z,13.24
2019-05-16T10:29:10.452Z,13.42
2019-05-16T10:31:45.077Z,13.60
2019-05-16T10:34:07.666Z,13.84
2019-05-16T10:36:37.341Z,14.07
2019-05-16T10:39:07.662Z,14.27
2019-05-16T10:41:37.079Z,14.19
2019-05-16T10:44:06.246Z,14.33
2019-05-16T10:46:37.433Z,14.76
2019-05-16T10:49:04.797Z,14.76
2019-05-16T10:51:33.138Z,14.79
2019-05-16T10:54:09.731Z,14.87
2019-05-16T10:56:31.458Z,14.75
2019-05-16T10:59:38.419Z,14.52
2019-05-16T11:01:31.321Z,14.43
2019-05-16T11:03:59.840Z,14.38
2019-05-16T11:06:29.398Z,14.30
2019-05-16T11:08:57.875Z,14.06
2019-05-16T11:11:27.389Z,13.98
2019-05-16T11:13:56.164Z,14.04
2019-05-16T11:16:27.222Z,13.79
2019-05-16T11:18:54.504Z,13.69
2019-05-16T11:21:22.817Z,13.83
2019-05-16T11:23:51.408Z,13.96
2019-05-16T11:26:19.755Z,14.22
2019-05-16T11:28:49.026Z,14.46
2019-05-16T11:31:17.808Z,14.60
2019-05-16T11:33:47.768Z,14.75
2019-05-16T11:36:16.779Z,14.54
2019-05-16T11:38:47.431Z,14.23
2019-05-16T11:41:16.704Z,14.14
2019-05-16T11:43:47.209Z,14.21
2019-05-16T11:46:15.532Z,14.34
2019-05-16T11:48:44.105Z,14.39
2019-05-16T11:51:12.403Z,14.24
2019-05-16T11:53:40.717Z,13.92
2019-05-16T11:56:09.019Z,13.72
2019-05-16T11:58:37.734Z,13.61
2019-05-16T12:01:07.480Z,13.46
2019-05-16T12:03:37.343Z,13.37
2019-05-16T12:06:10.329Z,13.53
2019-05-16T12:08:37.122Z,13.77
2019-05-16T12:11:06.976Z,14.06
2019-05-16T12:13:36.933Z,14.14
2019-05-16T12:16:07.563Z,14.19
2019-05-16T12:18:37.316Z,14.23
2019-05-16T12:21:07.652Z,14.32
2019-05-16T12:23:37.223Z,14.28
2019-05-16T12:26:07.696Z,14.37
2019-05-16T12:28:35.962Z,14.28
2019-05-16T12:31:04.269Z,14.26
2019-05-16T12:33:32.594Z,14.16
2019-05-16T12:36:01.220Z,14.05
2019-05-16T12:38:29.587Z,13.99
2019-05-16T12:40:57.837Z,14.11
2019-05-16T12:43:44.234Z,14.31
2019-05-16T12:45:56.969Z,14.35
2019-05-16T12:48:25.481Z,14.33
2019-05-16T12:50:53.779Z,14.34
2019-05-16T12:53:23.600Z,14.35
2019-05-16T12:55:52.674Z,14.12
2019-05-16T12:58:26.134Z,14.18
2019-05-16T13:00:57.408Z,14.25
2019-05-16T13:03:21.080Z,14.28
2019-05-16T13:05:49.377Z,14.32
2019-05-16T13:08:17.694Z,14.62
2019-05-16T13:10:47.013Z,14.88
2019-05-16T13:13:17.775Z,15.08
2019-05-16T13:15:47.568Z,15.09
2019-05-16T13:18:16.949Z,15.10
2019-05-16T13:20:46.715Z,15.13
2019-05-16T13:23:18.122Z,15.06
2019-05-16T13:25:47.858Z,14.77
2019-05-16T13:28:15.350Z,14.56
2019-05-16T13:30:43.650Z,14.52
2019-05-16T13:33:11.950Z,14.67
2019-05-16T13:35:40.289Z,14.75
2019-05-16T13:38:08.750Z,14.80
2019-05-16T13:40:37.128Z,14.88
2019-05-16T13:43:09.473Z,14.87
2019-05-16T13:45:37.731Z,14.71
2019-05-16T13:48:08.109Z,14.76
2019-05-16T13:50:39.673Z,14.85
2019-05-16T13:53:07.748Z,14.81
2019-05-16T13:55:37.741Z,14.71
2019-05-16T13:58:07.792Z,14.68
2019-05-16T14:00:37.563Z,14.77
2019-05-16T14:03:07.454Z,14.79
2019-05-16T14:05:37.930Z,14.86
2019-05-16T14:08:07.005Z,14.63
2019-05-16T14:10:37.567Z,14.45
2019-05-16T14:13:07.463Z,14.43
2019-05-16T14:15:36.862Z,14.08
2019-05-16T14:18:07.644Z,13.96
2019-05-16T14:20:37.619Z,13.96
2019-05-16T14:23:08.080Z,13.89
2019-05-16T14:25:38.003Z,13.82
2019-05-16T14:28:07.628Z,13.73
2019-05-16T14:30:37.200Z,13.60
2019-05-16T14:33:12.883Z,13.55
2019-05-16T14:35:37.616Z,13.44
2019-05-16T14:38:06.077Z,13.21
2019-05-16T14:40:37.100Z,13.20
2019-05-16T14:43:07.762Z,13.15
2019-05-16T14:45:34.541Z,13.22
2019-05-16T14:48:02.864Z,13.34
2019-05-16T14:50:31.173Z,13.47
2019-05-16T14:52:59.495Z,13.61
2019-05-16T14:55:27.845Z,13.67
2019-05-16T14:57:56.743Z,13.62
2019-05-16T15:00:27.714Z,13.60
2019-05-16T15:02:56.645Z,13.53
2019-05-16T15:05:25.105Z,13.56
2019-05-16T15:07:53.405Z,13.60
2019-05-16T15:10:21.704Z,13.54
2019-05-16T15:12:50.017Z,13.44
2019-05-16T15:15:24.202Z,13.45
2019-05-16T15:17:52.030Z,13.43
2019-05-16T15:20:20.520Z,13.39
2019-05-16T15:22:48.841Z,13.29
2019-05-16T15:25:17.810Z,13.21
2019-05-16T15:27:47.783Z,13.29
2019-05-16T15:30:17.305Z,13.37
2019-05-16T15:32:48.103Z,13.43
2019-05-16T15:35:18.125Z,13.39
2019-05-16T15:37:48.433Z,13.38
2019-05-16T15:40:18.220Z,13.42
2019-05-16T15:42:46.542Z,13.54
2019-05-16T15:45:17.832Z,13.67
2019-05-16T15:47:46.165Z,13.72
2019-05-16T15:50:17.926Z,13.68
2019-05-16T15:52:45.534Z,13.69
2019-05-16T15:55:14.075Z,13.72
2019-05-16T15:57:42.848Z,13.70
2019-05-16T16:00:11.829Z,13.64
2019-05-16T16:02:40.140Z,13.45
2019-05-16T16:05:08.943Z,13.19
2019-05-16T16:07:38.079Z,13.14
2019-05-16T16:10:07.396Z,12.95
2019-05-16T16:12:37.466Z,12.90
2019-05-16T16:15:07.766Z,12.87
2019-05-16T16:17:38.121Z,12.86
2019-05-16T16:20:10.481Z,12.77
2019-05-16T16:22:37.743Z,12.69
2019-05-16T16:25:07.564Z,12.36
2019-05-16T16:27:35.888Z,12.32
2019-05-16T16:30:06.931Z,12.22
2019-05-16T16:32:38.114Z,12.19
2019-05-16T16:35:08.124Z,12.20
2019-05-16T16:37:37.804Z,12.22
2019-05-16T16:40:11.152Z,12.12
2019-05-16T16:42:37.500Z,11.99
2019-05-16T16:45:07.354Z,11.93
2019-05-16T16:47:37.838Z,11.96
2019-05-16T16:50:07.893Z,11.99
2019-05-16T16:52:37.783Z,12.00
2019-05-16T16:55:07.581Z,11.98
2019-05-16T16:57:38.466Z,11.94
2019-05-16T17:00:08.922Z,11.90
2019-05-16T17:02:37.809Z,11.89
2019-05-16T17:05:11.751Z,11.87
2019-05-16T17:07:37.477Z,11.86
2019-05-16T17:10:07.161Z,11.87
2019-05-16T17:12:41.079Z,11.86
2019-05-16T17:15:09.094Z,11.89
2019-05-16T17:17:37.754Z,11.89
2019-05-16T17:20:07.811Z,11.97
2019-05-16T17:22:37.513Z,11.99
2019-05-16T17:25:07.961Z,11.93
2019-05-16T17:27:37.616Z,11.82
2019-05-16T17:30:20.477Z,11.77
2019-05-16T17:32:48.779Z,11.71
2019-05-16T17:35:19.156Z,11.56
2019-05-16T17:37:50.268Z,11.42
2019-05-16T17:40:18.996Z,11.31
2019-05-16T17:42:48.021Z,11.23
2019-05-16T17:45:18.029Z,11.26
2019-05-16T17:47:46.936Z,11.27
2019-05-16T17:50:17.330Z,11.24
2019-05-16T17:52:47.646Z,11.28
2019-05-16T17:55:17.287Z,11.27
2019-05-16T17:57:45.981Z,11.18
2019-05-16T18:00:22.179Z,11.09
2019-05-16T18:02:46.533Z,11.00
2019-05-16T18:05:16.991Z,10.93
2019-05-16T18:07:47.338Z,10.87
2019-05-16T18:10:17.041Z,10.80
2019-05-16T18:12:47.686Z,10.82
2019-05-16T18:15:18.554Z,10.91
2019-05-16T18:17:46.859Z,10.88
2019-05-16T18:20:15.622Z,10.91
2019-05-16T18:22:43.925Z,10.92
2019-05-16T18:25:12.629Z,10.86
2019-05-16T18:27:40.956Z,10.88
2019-05-16T18:30:10.099Z,10.86
2019-05-16T18:32:38.441Z,10.77
2019-05-16T18:35:08.568Z,10.76
2019-05-16T18:37:36.890Z,10.67
2019-05-16T18:40:08.638Z,10.66
2019-05-16T18:42:37.125Z,10.58
2019-05-16T18:45:07.475Z,10.53
2019-05-16T18:47:37.809Z,10.48
2019-05-16T18:50:07.132Z,10.56
2019-05-16T18:52:37.511Z,10.60
2019-05-16T18:55:09.016Z,10.56
2019-05-16T18:57:37.816Z,10.54
2019-05-16T19:00:10.764Z,10.51
2019-05-16T19:02:37.868Z,10.48
2019-05-16T19:05:07.162Z,10.43
2019-05-16T19:07:36.985Z,10.43
2019-05-16T19:10:07.083Z,10.42
2019-05-16T19:12:37.207Z,10.39
2019-05-16T19:15:09.042Z,10.37
2019-05-16T19:17:37.406Z,10.39
2019-05-16T19:20:06.873Z,10.37
2019-05-16T19:22:37.173Z,10.28
2019-05-16T19:25:07.073Z,10.25
2019-05-16T19:27:36.965Z,10.34
2019-05-16T19:30:09.214Z,10.28
2019-05-16T19:32:39.639Z,10.22
2019-05-16T19:35:07.899Z,10.21
2019-05-16T19:37:40.399Z,10.26
2019-05-16T19:40:07.126Z,10.22
2019-05-16T19:42:36.764Z,10.14
2019-05-16T19:45:09.047Z,10.17
2019-05-16T19:47:40.992Z,10.12
2019-05-16T19:50:08.217Z,10.07
2019-05-16T19:52:36.911Z,10.15
2019-05-16T19:55:08.623Z,10.22
2019-05-16T19:57:37.602Z,10.32
2019-05-16T20:00:08.260Z,10.37
2019-05-16T20:02:36.987Z,10.45
2019-05-16T20:05:07.000Z,10.45
2019-05-16T20:07:37.251Z,10.37
2019-05-16T20:10:09.727Z,10.32
2019-05-16T20:12:38.366Z,10.31
2019-05-16T20:15:11.439Z,10.39
2019-05-16T20:17:50.816Z,10.49
2019-05-16T20:20:08.530Z,10.52
2019-05-16T20:22:37.085Z,10.55
2019-05-16T20:25:06.638Z,10.56
2019-05-16T20:27:36.795Z,10.56
2019-05-16T20:30:07.067Z,10.51
2019-05-16T20:32:37.155Z,10.52
2019-05-16T20:35:08.994Z,10.47
2019-05-16T20:37:36.857Z,10.39
2019-05-16T20:40:09.173Z,10.39
2019-05-16T20:42:36.923Z,10.44
2019-05-16T20:45:07.973Z,10.49
2019-05-16T20:47:36.473Z,10.50
2019-05-16T20:50:07.871Z,10.48
2019-05-16T20:52:37.801Z,10.46
2019-05-16T20:55:07.452Z,10.40
2019-05-16T20:57:37.609Z,10.45
2019-05-16T21:00:08.248Z,10.48
2019-05-16T21:02:37.788Z,10.42
2019-05-16T21:05:07.157Z,10.44
2019-05-16T21:07:37.515Z,10.51
2019-05-16T21:10:10.480Z,10.54
2019-05-16T21:12:40.195Z,10.49
2019-05-16T21:15:09.433Z,10.41
2019-05-16T21:17:38.092Z,10.39
2019-05-16T21:20:07.555Z,10.36
2019-05-16T21:22:36.998Z,10.39
2019-05-16T21:25:06.309Z,10.39
2019-05-16T21:27:37.510Z,10.38
2019-05-16T21:30:08.221Z,10.31
2019-05-16T21:32:36.848Z,10.25
2019-05-16T21:35:07.257Z,10.22
2019-05-16T21:37:37.382Z,10.21
2019-05-16T21:40:07.901Z,10.15
2019-05-16T21:42:36.635Z,10.13
2019-05-16T21:45:07.430Z,10.13
2019-05-16T21:47:36.938Z,10.17
2019-05-16T21:50:07.831Z,10.27
2019-05-16T21:52:36.521Z,10.29
2019-05-16T21:55:07.166Z,10.29
2019-05-16T21:57:37.828Z,10.35
2019-05-16T22:00:13.285Z,10.32
2019-05-16T22:02:41.602Z,10.30
2019-05-16T22:05:10.069Z,10.33
2019-05-16T22:07:38.398Z,10.33
2019-05-16T22:10:07.931Z,10.30
2019-05-16T22:12:38.421Z,10.25
2019-05-16T22:15:06.861Z,10.20
2019-05-16T22:17:36.645Z,10.21
2019-05-16T22:20:07.171Z,10.19
2019-05-16T22:22:37.937Z,10.23
2019-05-16T22:25:07.695Z,10.21
2019-05-16T22:27:35.688Z,10.19
2019-05-16T22:30:09.911Z,10.17
2019-05-16T22:32:38.225Z,10.16
2019-05-16T22:35:07.947Z,10.09
2019-05-16T22:37:49.329Z,10.06
2019-05-16T22:40:07.351Z,10.09
2019-05-16T22:42:37.466Z,10.11
2019-05-16T22:45:09.013Z,10.09
2019-05-16T22:47:37.790Z,10.10
2019-05-16T22:50:07.659Z,10.12
2019-05-16T22:52:36.769Z,10.15
2019-05-16T22:55:07.473Z,10.11
2019-05-16T22:57:35.873Z,10.07
2019-05-16T23:00:09.481Z,10.14
2019-05-16T23:02:37.786Z,10.21
2019-05-16T23:05:07.384Z,10.26
2019-05-16T23:07:36.702Z,10.25
2019-05-16T23:10:07.445Z,10.18
2019-05-16T23:12:37.211Z,10.10
2019-05-16T23:15:06.751Z,10.01
2019-05-16T23:17:37.313Z,9.97
2019-05-16T23:20:06.498Z,9.91
2019-05-16T23:22:36.693Z,9.93
2019-05-16T23:25:06.529Z,9.99
2019-05-16T23:27:36.855Z,10.01
2019-05-16T23:32:15.146Z,10.12
2019-05-16T23:34:43.548Z,10.09
2019-05-16T23:37:11.875Z,10.11
2019-05-16T23:39:40.187Z,10.09
2019-05-16T23:42:08.843Z,10.11
2019-05-16T23:44:37.221Z,10.15
2019-05-16T23:47:07.042Z,10.18
2019-05-16T23:49:36.652Z,10.16
2019-05-16T23:52:07.252Z,10.07
2019-05-16T23:54:36.858Z,10.04
2019-05-16T23:57:06.640Z,10.02
2019-05-16T23:59:36.887Z,10.04
